Time;durP1;ratioP1;P1;durP2;ratioP2;P2;SDS_P1;SDS_P2;PMS_P1;PMS_P2;Temp;Humidity;BMP_temperature;BMP_pressure;BME280_temperature;BME280_humidity;BME280_pressure;Samples;Min_cycle;Max_cycle;Signal;HPM_P1;HPM_P2
2023/08/07 00:00:47;;;;;;;0.57;0.57;;;20.60;74.90;;;;;;5005366;28;20262;-69
2023/08/07 00:03:18;;;;;;;0.70;0.70;;;20.60;74.80;;;;;;4985820;28;20192;-70
2023/08/07 00:05:48;;;;;;;0.73;0.73;;;20.60;74.90;;;;;;4993135;28;20196;-70
2023/08/07 00:08:14;;;;;;;0.90;0.90;;;20.60;74.90;;;;;;4969384;28;20212;-70
2023/08/07 00:10:40;;;;;;;1.13;0.68;;;20.60;74.90;;;;;;4977408;28;20197;-71
2023/08/07 00:13:06;;;;;;;1.75;1.02;;;20.60;74.80;;;;;;4995897;28;20200;-70
2023/08/07 00:15:33;;;;;;;0.77;0.73;;;20.60;74.90;;;;;;4967207;28;20215;-69
2023/08/07 00:17:59;;;;;;;0.75;0.75;;;20.60;74.80;;;;;;5003728;28;20221;-70
2023/08/07 00:20:25;;;;;;;0.73;0.73;;;20.60;74.80;;;;;;5006103;28;20188;-70
2023/08/07 00:22:50;;;;;;;0.98;0.77;;;20.60;74.80;;;;;;4980112;28;20579;-70
2023/08/07 00:25:16;;;;;;;0.70;0.70;;;20.60;74.80;;;;;;5009234;28;20189;-70
2023/08/07 00:27:42;;;;;;;1.10;0.80;;;20.60;74.80;;;;;;5007793;28;20291;-70
2023/08/07 00:30:09;;;;;;;1.80;1.05;;;20.60;74.90;;;;;;4996902;28;20202;-71
2023/08/07 00:32:34;;;;;;;1.30;0.80;;;20.60;74.80;;;;;;4988559;28;20242;-70
2023/08/07 00:35:00;;;;;;;0.63;0.63;;;20.60;74.80;;;;;;4986925;28;20235;-70
2023/08/07 00:37:26;;;;;;;0.75;0.70;;;20.60;74.70;;;;;;5001305;28;20270;-70
2023/08/07 00:39:52;;;;;;;0.70;0.70;;;20.60;74.70;;;;;;4993254;28;20216;-69
2023/08/07 00:42:17;;;;;;;0.80;0.73;;;20.60;74.80;;;;;;5012555;28;20187;-69
2023/08/07 00:44:43;;;;;;;0.65;0.65;;;20.60;74.80;;;;;;4981075;28;20241;-70
2023/08/07 00:47:09;;;;;;;1.15;0.70;;;20.60;74.80;;;;;;4991868;28;20180;-70
2023/08/07 00:49:36;;;;;;;0.70;0.70;;;20.60;74.70;;;;;;5007119;28;20210;-70
2023/08/07 00:52:02;;;;;;;0.70;0.70;;;20.60;74.70;;;;;;4992787;28;20514;-70
2023/08/07 00:54:28;;;;;;;0.80;0.80;;;20.60;74.80;;;;;;5006143;28;20184;-70
2023/08/07 00:56:54;;;;;;;0.70;0.70;;;20.60;74.70;;;;;;5013204;28;20192;-69
2023/08/07 00:59:21;;;;;;;0.80;0.80;;;20.60;74.80;;;;;;4996253;28;20216;-70
2023/08/07 01:01:47;;;;;;;0.93;0.75;;;20.60;74.80;;;;;;4984777;28;20596;-70
2023/08/07 01:04:12;;;;;;;1.52;0.70;;;20.60;74.70;;;;;;4960417;28;20185;-70
2023/08/07 01:06:38;;;;;;;0.73;0.60;;;20.60;74.80;;;;;;5000978;28;20201;-71
2023/08/07 01:09:04;;;;;;;0.93;0.80;;;20.60;74.70;;;;;;4992689;28;20217;-70
2023/08/07 01:11:45;;;;;;;0.65;0.60;;;20.60;74.70;;;;;;4976408;28;20189;-70
2023/08/07 01:15:00;;;;;;;0.70;0.70;;;20.60;74.60;;;;;;4984595;28;20208;-70
2023/08/07 01:17:26;;;;;;;0.60;0.60;;;20.60;74.60;;;;;;4960721;28;20257;-70
2023/08/07 01:19:53;;;;;;;0.50;0.50;;;20.50;74.60;;;;;;5003734;28;20188;-69
2023/08/07 01:22:19;;;;;;;0.90;0.90;;;20.60;74.60;;;;;;4987653;28;20330;-70
2023/08/07 01:24:49;;;;;;;0.75;0.75;;;20.60;74.60;;;;;;5011959;28;20250;-70
2023/08/07 01:27:14;;;;;;;0.60;0.60;;;20.50;74.60;;;;;;4967577;28;20185;-70
2023/08/07 01:30:22;;;;;;;0.65;0.65;;;20.60;74.70;;;;;;4998553;28;20679;-70
2023/08/07 01:33:06;;;;;;;0.70;0.70;;;20.50;74.40;;;;;;4976493;28;20196;-70
2023/08/07 01:35:42;;;;;;;0.70;0.70;;;20.50;74.60;;;;;;4995054;28;20276;-70
2023/08/07 01:38:12;;;;;;;0.95;0.90;;;20.60;74.60;;;;;;4960166;28;20224;-70
2023/08/07 01:40:41;;;;;;;0.63;0.63;;;20.50;74.50;;;;;;4991090;28;20193;-70
2023/08/07 01:43:08;;;;;;;1.15;0.77;;;20.60;74.60;;;;;;5009575;28;20304;-69
2023/08/07 01:45:34;;;;;;;0.60;0.60;;;20.60;74.60;;;;;;4998049;28;20181;-69
2023/08/07 01:48:01;;;;;;;1.67;0.90;;;20.50;74.50;;;;;;4983459;28;20219;-69
2023/08/07 01:50:26;;;;;;;1.20;0.98;;;20.60;74.70;;;;;;5000364;28;20275;-70
2023/08/07 01:52:52;;;;;;;0.73;0.73;;;20.50;74.50;;;;;;4975779;28;20639;-70
2023/08/07 01:55:20;;;;;;;0.77;0.77;;;20.50;74.40;;;;;;4996345;28;20184;-70
2023/08/07 01:57:50;;;;;;;0.75;0.70;;;20.50;74.50;;;;;;5003859;28;20223;-70
2023/08/07 02:00:17;;;;;;;0.73;0.70;;;20.60;74.50;;;;;;4991910;28;20181;-70
2023/08/07 02:02:44;;;;;;;0.70;0.70;;;20.50;74.60;;;;;;4982025;28;20196;-70
2023/08/07 02:05:10;;;;;;;0.85;0.80;;;20.50;74.50;;;;;;5005492;28;20191;-69
2023/08/07 02:07:36;;;;;;;1.65;0.75;;;20.50;74.40;;;;;;4994804;28;20222;-70
2023/08/07 02:10:02;;;;;;;0.80;0.80;;;20.50;74.50;;;;;;4969763;28;20191;-70
2023/08/07 02:12:31;;;;;;;0.70;0.70;;;20.50;74.60;;;;;;4983347;28;20181;-70
2023/08/07 02:14:59;;;;;;;0.88;0.85;;;20.50;74.50;;;;;;4967934;28;20184;-69
2023/08/07 02:17:27;;;;;;;1.88;0.80;;;20.50;74.50;;;;;;4970080;28;20196;-70
2023/08/07 02:19:53;;;;;;;0.70;0.70;;;20.60;74.50;;;;;;5011268;28;20298;-70
2023/08/07 02:22:19;;;;;;;0.80;0.80;;;20.50;74.40;;;;;;4977998;28;20272;-70
2023/08/07 02:24:45;;;;;;;0.80;0.75;;;20.50;74.40;;;;;;4979819;28;20217;-69
2023/08/07 02:27:11;;;;;;;0.70;0.70;;;20.50;74.40;;;;;;4974972;28;20184;-69
2023/08/07 02:29:37;;;;;;;1.13;0.82;;;20.60;74.50;;;;;;4967088;28;20197;-70
2023/08/07 02:32:04;;;;;;;0.70;0.70;;;20.50;74.40;;;;;;4975057;28;20192;-70
2023/08/07 02:34:30;;;;;;;0.77;0.77;;;20.60;74.50;;;;;;4986633;28;20208;-70
2023/08/07 02:36:58;;;;;;;0.80;0.80;;;20.50;74.40;;;;;;4969948;28;20216;-70
2023/08/07 02:39:25;;;;;;;0.65;0.63;;;20.50;74.30;;;;;;5002944;28;20265;-70
2023/08/07 02:41:51;;;;;;;0.60;0.60;;;20.50;74.30;;;;;;4970929;28;20224;-70
2023/08/07 02:44:17;;;;;;;1.25;0.95;;;20.50;74.40;;;;;;4993816;28;20188;-69
2023/08/07 02:46:43;;;;;;;0.93;0.90;;;20.50;74.20;;;;;;4994516;28;20214;-70
2023/08/07 02:49:09;;;;;;;0.90;0.90;;;20.50;74.40;;;;;;4992674;28;20212;-70
2023/08/07 02:51:35;;;;;;;0.75;0.70;;;20.50;74.40;;;;;;4984320;28;20196;-69
2023/08/07 02:54:01;;;;;;;0.60;0.60;;;20.50;74.40;;;;;;4966112;28;20214;-70
2023/08/07 02:56:26;;;;;;;0.80;0.80;;;20.60;74.50;;;;;;4982227;28;20179;-68
2023/08/07 02:58:52;;;;;;;0.60;0.60;;;20.50;74.40;;;;;;4997954;28;20226;-69
2023/08/07 03:01:19;;;;;;;1.45;1.10;;;20.50;74.50;;;;;;4995688;28;20316;-70
2023/08/07 03:03:45;;;;;;;0.93;0.70;;;20.50;74.40;;;;;;4981960;28;20200;-70
2023/08/07 03:06:11;;;;;;;0.60;0.60;;;20.50;74.40;;;;;;4990002;28;20228;-70
2023/08/07 03:08:36;;;;;;;0.70;0.70;;;20.50;74.40;;;;;;4975534;28;20204;-70
2023/08/07 03:11:02;;;;;;;0.70;0.70;;;20.50;74.60;;;;;;4998034;28;20252;-70
2023/08/07 03:13:28;;;;;;;0.70;0.70;;;20.50;74.50;;;;;;4990232;28;20198;-69
2023/08/07 03:16:03;;;;;;;1.15;1.00;;;20.50;74.40;;;;;;5003121;28;20197;-70
2023/08/07 03:18:29;;;;;;;0.82;0.82;;;20.50;74.30;;;;;;4982512;28;20227;-69
2023/08/07 03:20:56;;;;;;;0.60;0.60;;;20.50;74.30;;;;;;5006316;28;20699;-70
2023/08/07 03:23:23;;;;;;;0.60;0.60;;;20.50;74.40;;;;;;4978466;28;20188;-70
2023/08/07 03:25:50;;;;;;;0.77;0.77;;;20.50;74.40;;;;;;4970405;28;20196;-70
2023/08/07 03:28:17;;;;;;;1.05;0.80;;;20.50;74.30;;;;;;5002180;28;20432;-70
2023/08/07 03:30:44;;;;;;;0.98;0.88;;;20.50;74.40;;;;;;4986587;28;20657;-69
2023/08/07 03:33:12;;;;;;;0.93;0.90;;;20.50;74.30;;;;;;4986541;28;20203;-70
2023/08/07 03:35:39;;;;;;;0.75;0.70;;;20.50;74.40;;;;;;4978153;28;20215;-70
2023/08/07 03:38:05;;;;;;;0.70;0.70;;;20.50;74.30;;;;;;4977749;28;20595;-70
2023/08/07 03:40:31;;;;;;;0.95;0.80;;;20.50;74.30;;;;;;5000215;28;20188;-70
2023/08/07 03:42:57;;;;;;;1.05;0.95;;;20.50;74.40;;;;;;4981886;28;20192;-70
2023/08/07 03:45:24;;;;;;;0.80;0.80;;;20.50;74.30;;;;;;4973562;28;20183;-69
2023/08/07 03:47:49;;;;;;;0.80;0.80;;;20.50;75.00;;;;;;4981268;28;20204;-70
2023/08/07 03:50:15;;;;;;;1.02;0.90;;;20.50;74.40;;;;;;4986041;28;20192;-70
2023/08/07 03:52:41;;;;;;;0.93;0.82;;;20.50;74.40;;;;;;4991354;28;20195;-71
2023/08/07 03:55:07;;;;;;;0.90;0.90;;;20.50;74.30;;;;;;4987931;28;20197;-70
2023/08/07 03:57:33;;;;;;;1.15;0.90;;;20.50;74.40;;;;;;4969206;28;20204;-69
2023/08/07 03:59:59;;;;;;;1.05;0.70;;;20.50;74.30;;;;;;4986041;28;20668;-71
2023/08/07 04:02:29;;;;;;;0.80;0.80;;;20.50;74.40;;;;;;4989444;28;20199;-70
2023/08/07 04:04:55;;;;;;;0.68;0.63;;;20.50;74.40;;;;;;4989280;28;20184;-70
2023/08/07 04:07:20;;;;;;;1.20;0.65;;;20.50;74.30;;;;;;4980791;28;20214;-70
2023/08/07 04:09:46;;;;;;;1.15;1.00;;;20.50;74.50;;;;;;4990583;28;20189;-70
2023/08/07 04:12:12;;;;;;;1.10;0.90;;;20.50;74.30;;;;;;4977318;28;20186;-70
2023/08/07 04:14:38;;;;;;;1.08;0.80;;;20.50;74.20;;;;;;4999182;28;20200;-70
2023/08/07 04:17:04;;;;;;;0.70;0.70;;;20.50;74.20;;;;;;4988229;28;20195;-70
2023/08/07 04:19:29;;;;;;;1.08;0.90;;;20.50;74.20;;;;;;4969211;28;20201;-70
2023/08/07 04:21:55;;;;;;;0.95;0.60;;;20.50;74.20;;;;;;4969254;28;20289;-69
2023/08/07 04:24:21;;;;;;;1.55;0.70;;;20.50;74.30;;;;;;4980348;28;20190;-70
2023/08/07 04:26:46;;;;;;;0.70;0.70;;;20.50;74.10;;;;;;4965999;28;20181;-69
2023/08/07 04:29:12;;;;;;;0.70;0.70;;;20.50;74.20;;;;;;4985219;28;20213;-70
2023/08/07 04:31:38;;;;;;;0.50;0.50;;;20.40;74.10;;;;;;4980934;28;20193;-70
2023/08/07 04:34:04;;;;;;;0.70;0.70;;;20.40;74.90;;;;;;4977787;28;20283;-70
2023/08/07 04:36:30;;;;;;;0.88;0.82;;;20.40;74.10;;;;;;4988261;28;20226;-69
2023/08/07 04:38:56;;;;;;;1.10;1.00;;;20.50;74.20;;;;;;5005633;28;20219;-70
2023/08/07 04:41:22;;;;;;;0.82;0.70;;;20.50;74.30;;;;;;4980343;28;20188;-70
2023/08/07 04:43:48;;;;;;;0.80;0.70;;;20.40;74.00;;;;;;5006901;28;20196;-70
2023/08/07 04:46:14;;;;;;;1.00;0.88;;;20.50;74.10;;;;;;4986452;28;20188;-70
2023/08/07 04:48:40;;;;;;;0.80;0.80;;;20.50;74.20;;;;;;5005799;28;20212;-70
2023/08/07 04:51:06;;;;;;;0.80;0.80;;;20.40;74.20;;;;;;4971184;28;20184;-70
2023/08/07 04:53:32;;;;;;;0.63;0.63;;;20.40;74.20;;;;;;4984559;28;20181;-69
2023/08/07 04:55:59;;;;;;;0.80;0.75;;;20.40;74.10;;;;;;5000827;28;20200;-70
2023/08/07 04:58:25;;;;;;;0.73;0.73;;;20.40;74.10;;;;;;4968148;28;20212;-69
2023/08/07 05:00:58;;;;;;;0.93;0.73;;;20.40;74.00;;;;;;5009146;28;20626;-69
2023/08/07 05:03:26;;;;;;;0.80;0.80;;;20.50;74.10;;;;;;4985745;28;20199;-70
2023/08/07 05:05:59;;;;;;;0.93;0.90;;;20.40;74.00;;;;;;4971786;28;20626;-70
2023/08/07 05:08:25;;;;;;;0.80;0.80;;;20.40;73.90;;;;;;4992577;28;20215;-70
2023/08/07 05:10:51;;;;;;;0.98;0.88;;;20.40;73.90;;;;;;4999088;28;20203;-70
2023/08/07 05:13:17;;;;;;;1.10;0.90;;;20.40;73.90;;;;;;4993132;28;20199;-70
2023/08/07 05:15:42;;;;;;;0.60;0.60;;;20.40;74.00;;;;;;4965575;28;20192;-70
2023/08/07 05:18:08;;;;;;;0.80;0.80;;;20.40;74.00;;;;;;5003507;28;20229;-70
2023/08/07 05:20:34;;;;;;;1.55;0.82;;;20.40;73.90;;;;;;4969290;28;20177;-69
2023/08/07 05:22:59;;;;;;;0.80;0.80;;;20.40;73.90;;;;;;4983928;28;20192;-70
2023/08/07 05:25:26;;;;;;;0.80;0.80;;;20.40;73.90;;;;;;4979586;28;20234;-70
2023/08/07 05:27:51;;;;;;;1.13;1.08;;;20.40;74.00;;;;;;4987221;28;20214;-70
2023/08/07 05:30:17;;;;;;;0.98;0.80;;;20.40;74.00;;;;;;4995664;28;20191;-69
2023/08/07 05:32:43;;;;;;;0.70;0.70;;;20.40;73.90;;;;;;4971167;28;20651;-70
2023/08/07 05:35:09;;;;;;;1.10;1.00;;;20.40;74.00;;;;;;4986424;28;20193;-69
2023/08/07 05:37:35;;;;;;;0.80;0.80;;;20.40;74.00;;;;;;5005476;28;20216;-70
2023/08/07 05:40:02;;;;;;;0.80;0.80;;;20.40;73.90;;;;;;5003930;28;20658;-70
2023/08/07 05:42:28;;;;;;;0.80;0.80;;;20.40;74.00;;;;;;4995453;28;20192;-70
2023/08/07 05:44:53;;;;;;;0.82;0.80;;;20.40;74.00;;;;;;4988312;28;20199;-70
2023/08/07 05:47:19;;;;;;;0.88;0.88;;;20.40;74.10;;;;;;4969409;28;20203;-70
2023/08/07 05:49:45;;;;;;;0.70;0.70;;;20.40;74.00;;;;;;5004601;28;20246;-70
2023/08/07 05:52:10;;;;;;;0.80;0.80;;;20.40;74.00;;;;;;4986657;28;20631;-70
2023/08/07 05:54:36;;;;;;;0.68;0.68;;;20.40;73.90;;;;;;4974800;28;20199;-70
2023/08/07 05:57:03;;;;;;;0.90;0.90;;;20.40;74.00;;;;;;4975493;28;20189;-70
2023/08/07 05:59:29;;;;;;;0.90;0.90;;;20.40;73.90;;;;;;4999787;28;20200;-70
2023/08/07 06:01:55;;;;;;;1.05;1.00;;;20.40;73.80;;;;;;4999724;28;20191;-70
2023/08/07 06:04:21;;;;;;;0.70;0.70;;;20.40;74.10;;;;;;5009089;28;20192;-71
2023/08/07 06:06:47;;;;;;;0.93;0.90;;;20.40;73.90;;;;;;4998721;28;20203;-68
2023/08/07 06:09:17;;;;;;;0.73;0.70;;;20.40;73.90;;;;;;4975284;28;20216;-70
2023/08/07 06:11:43;;;;;;;0.98;0.98;;;20.40;73.80;;;;;;4983318;28;20235;-70
2023/08/07 06:14:08;;;;;;;0.73;0.73;;;20.40;73.80;;;;;;4991160;28;20215;-70
2023/08/07 06:16:34;;;;;;;0.80;0.80;;;20.40;73.90;;;;;;4971063;28;20741;-70
2023/08/07 06:19:00;;;;;;;0.90;0.90;;;20.40;73.90;;;;;;4970879;28;20215;-70
2023/08/07 06:21:28;;;;;;;0.82;0.82;;;20.40;73.80;;;;;;4992522;28;20193;-70
2023/08/07 06:23:54;;;;;;;0.80;0.80;;;20.40;73.60;;;;;;4999032;28;20205;-70
2023/08/07 06:26:20;;;;;;;1.30;0.80;;;20.40;73.90;;;;;;4974944;28;20195;-70
2023/08/07 06:28:46;;;;;;;0.93;0.77;;;20.40;73.80;;;;;;5004691;28;20200;-70
2023/08/07 06:31:12;;;;;;;0.60;0.60;;;20.40;74.70;;;;;;4978597;28;20220;-70
2023/08/07 06:33:38;;;;;;;1.25;0.95;;;20.40;73.80;;;;;;5006373;28;20197;-70
2023/08/07 06:36:04;;;;;;;0.70;0.70;;;20.40;73.90;;;;;;4982782;28;20199;-71
2023/08/07 06:38:31;;;;;;;0.82;0.82;;;20.40;73.90;;;;;;4999246;28;20286;-70
2023/08/07 06:40:57;;;;;;;0.80;0.80;;;20.40;73.80;;;;;;4982913;28;20251;-69
2023/08/07 06:43:23;;;;;;;0.90;0.90;;;20.40;73.90;;;;;;5001269;28;20193;-70
2023/08/07 06:45:57;;;;;;;0.68;0.68;;;20.40;73.90;;;;;;4986560;28;20194;-69
2023/08/07 06:48:23;;;;;;;0.80;0.80;;;20.40;73.50;;;;;;5010284;28;20283;-69
2023/08/07 06:50:51;;;;;;;0.77;0.77;;;20.40;74.00;;;;;;5011886;28;20276;-70
2023/08/07 06:53:18;;;;;;;0.70;0.70;;;20.40;73.80;;;;;;4969253;28;20242;-69
2023/08/07 06:55:44;;;;;;;0.95;0.88;;;20.40;73.70;;;;;;4979786;28;20568;-70
2023/08/07 06:58:10;;;;;;;0.95;0.80;;;20.40;73.70;;;;;;5007916;28;20220;-70
2023/08/07 07:00:37;;;;;;;1.00;1.00;;;20.40;73.70;;;;;;4975119;28;20679;-70
2023/08/07 07:03:04;;;;;;;2.05;0.65;;;20.40;73.60;;;;;;4982924;28;20272;-70
2023/08/07 07:05:30;;;;;;;5.28;0.80;;;20.40;75.40;;;;;;4998784;28;20188;-71
2023/08/07 07:07:57;;;;;;;3.90;0.90;;;20.50;75.60;;;;;;4997862;28;20211;-70
2023/08/07 07:10:23;;;;;;;2.65;1.10;;;20.50;75.80;;;;;;5007702;28;20235;-71
2023/08/07 07:12:49;;;;;;;1.55;1.08;;;20.50;75.60;;;;;;4972039;28;20255;-71
2023/08/07 07:15:15;;;;;;;1.65;0.70;;;20.50;75.60;;;;;;4985081;28;20319;-71
2023/08/07 07:17:41;;;;;;;2.42;0.80;;;20.50;75.80;;;;;;4987239;28;20244;-71
2023/08/07 07:20:09;;;;;;;1.00;0.90;;;20.50;75.80;;;;;;5003649;28;20272;-71
2023/08/07 07:22:35;;;;;;;2.00;0.73;;;20.60;75.90;;;;;;4982431;28;20193;-71
2023/08/07 07:25:01;;;;;;;1.60;0.60;;;20.50;75.90;;;;;;4981970;28;20184;-70
2023/08/07 07:27:27;;;;;;;2.33;0.80;;;20.60;76.00;;;;;;4985705;28;20584;-71
2023/08/07 07:29:53;;;;;;;1.42;0.90;;;20.50;75.80;;;;;;4994450;28;20196;-71
2023/08/07 07:32:19;;;;;;;1.85;0.80;;;20.50;75.90;;;;;;4977857;28;20284;-71
2023/08/07 07:34:45;;;;;;;2.47;1.10;;;20.50;75.80;;;;;;4998932;28;20231;-72
2023/08/07 07:37:10;;;;;;;1.77;0.90;;;20.60;76.10;;;;;;4969205;28;20228;-71
2023/08/07 07:39:36;;;;;;;2.17;0.90;;;20.60;76.70;;;;;;4973430;28;20220;-71
2023/08/07 07:42:04;;;;;;;0.80;0.80;;;20.60;76.90;;;;;;4990314;28;20284;-72
2023/08/07 07:44:31;;;;;;;2.17;0.82;;;20.60;77.00;;;;;;4970279;28;20188;-72
2023/08/07 07:46:56;;;;;;;2.17;1.20;;;20.60;76.90;;;;;;4985768;28;20188;-72
2023/08/07 07:49:22;;;;;;;2.10;1.05;;;20.60;77.00;;;;;;4985816;28;20228;-72
2023/08/07 07:51:49;;;;;;;2.53;0.80;;;20.60;76.80;;;;;;4970131;28;20200;-73
2023/08/07 07:54:15;;;;;;;1.30;0.98;;;20.60;76.80;;;;;;4962329;28;20201;-71
2023/08/07 07:56:44;;;;;;;0.82;0.80;;;20.60;76.80;;;;;;5001215;28;20325;-72
2023/08/07 07:59:10;;;;;;;4.18;1.25;;;20.60;76.80;;;;;;4977571;28;20228;-72
2023/08/07 08:01:36;;;;;;;1.67;0.80;;;20.60;76.70;;;;;;4981402;28;20189;-72
2023/08/07 08:04:01;;;;;;;2.38;0.77;;;20.60;76.70;;;;;;4997617;28;20188;-71
2023/08/07 08:06:27;;;;;;;1.63;0.80;;;20.60;76.90;;;;;;4977275;28;20180;-71
2023/08/07 08:08:53;;;;;;;1.38;0.98;;;20.70;76.60;;;;;;4991569;28;20219;-71
2023/08/07 08:11:18;;;;;;;2.03;1.02;;;20.70;76.50;;;;;;4979612;28;20184;-71
2023/08/07 08:13:44;;;;;;;4.25;0.93;;;20.70;76.60;;;;;;4966190;28;20192;-70
2023/08/07 08:16:10;;;;;;;1.50;0.80;;;20.70;76.80;;;;;;5005378;28;20196;-73
2023/08/07 08:18:36;;;;;;;3.40;1.27;;;20.70;76.90;;;;;;4989918;28;20228;-70
2023/08/07 08:21:01;;;;;;;1.65;1.08;;;20.70;77.00;;;;;;4986077;28;20189;-71
2023/08/07 08:23:27;;;;;;;1.60;0.90;;;20.70;77.20;;;;;;5003909;28;20192;-71
2023/08/07 08:25:53;;;;;;;1.00;0.90;;;20.70;77.10;;;;;;4991089;28;20192;-71
2023/08/07 08:28:18;;;;;;;1.90;0.80;;;20.70;77.10;;;;;;5010660;28;20645;-71
2023/08/07 08:30:44;;;;;;;0.90;0.77;;;20.70;77.10;;;;;;5006425;28;20192;-71
2023/08/07 08:33:12;;;;;;;1.92;0.90;;;20.70;77.10;;;;;;5009538;28;20215;-71
2023/08/07 08:35:38;;;;;;;2.33;0.80;;;20.70;76.90;;;;;;4992933;28;20196;-69
2023/08/07 08:38:05;;;;;;;1.55;0.90;;;20.70;76.90;;;;;;4984686;28;20205;-70
2023/08/07 08:40:30;;;;;;;1.65;0.90;;;20.70;77.10;;;;;;4993242;28;20196;-69
2023/08/07 08:43:00;;;;;;;2.70;1.10;;;20.80;76.90;;;;;;5008656;28;20747;-69
2023/08/07 08:45:27;;;;;;;3.97;1.20;;;20.70;76.20;;;;;;5002371;28;20239;-72
2023/08/07 08:48:01;;;;;;;18.27;1.55;;;20.60;75.00;;;;;;4983633;28;20719;-70
2023/08/07 08:50:29;;;;;;;3.92;1.35;;;20.40;69.20;;;;;;4995225;28;20673;-69
2023/08/07 08:52:56;;;;;;;2.75;1.33;;;20.20;68.40;;;;;;4988143;28;20242;-70
2023/08/07 08:55:23;;;;;;;2.33;1.48;;;20.30;70.90;;;;;;4988497;28;20189;-69
2023/08/07 08:57:53;;;;;;;3.17;1.27;;;20.40;72.90;;;;;;4995949;28;20212;-70
2023/08/07 09:00:23;;;;;;;3.53;1.30;;;20.50;73.40;;;;;;4995149;28;20195;-70
2023/08/07 09:02:51;;;;;;;3.33;1.50;;;20.60;72.70;;;;;;5003493;28;20280;-71
2023/08/07 09:05:19;;;;;;;3.58;1.27;;;20.60;71.80;;;;;;4988037;28;20192;-69
2023/08/07 09:07:47;;;;;;;3.65;1.27;;;20.70;71.60;;;;;;5011070;28;20575;-70
2023/08/07 09:10:14;;;;;;;4.38;1.55;;;20.70;71.70;;;;;;4984715;28;20195;-70
2023/08/07 09:12:54;;;;;;;2.53;1.42;;;20.70;71.70;;;;;;5005334;28;20246;-69
2023/08/07 09:15:23;;;;;;;6.40;1.60;;;20.70;71.60;;;;;;5010908;28;20192;-69
2023/08/07 09:17:50;;;;;;;3.00;1.38;;;20.80;71.90;;;;;;4972732;28;20279;-69
2023/08/07 09:20:17;;;;;;;3.03;1.42;;;20.80;71.80;;;;;;5004117;28;20194;-70
2023/08/07 09:22:42;;;;;;;2.10;1.40;;;20.80;71.90;;;;;;5000055;28;20199;-68
2023/08/07 09:25:09;;;;;;;15.98;1.60;;;20.80;71.80;;;;;;5007870;28;20188;-69
2023/08/07 09:27:38;;;;;;;2.17;1.45;;;20.80;72.00;;;;;;4979509;28;20231;-69
2023/08/07 09:30:09;;;;;;;3.65;1.50;;;20.80;72.00;;;;;;4972865;28;20203;-70
2023/08/07 09:32:36;;;;;;;3.40;1.30;;;20.90;72.10;;;;;;4978801;28;20195;-70
2023/08/07 09:35:06;;;;;;;2.85;1.45;;;20.90;72.10;;;;;;4979473;28;20187;-70
2023/08/07 09:37:32;;;;;;;4.85;1.20;;;20.90;72.40;;;;;;4984715;28;20716;-69
2023/08/07 09:40:01;;;;;;;3.08;1.55;;;20.90;72.70;;;;;;4993380;28;20212;-70
2023/08/07 09:42:32;;;;;;;4.93;1.55;;;20.90;73.10;;;;;;4992269;28;20248;-70
2023/08/07 09:45:00;;;;;;;3.33;1.27;;;20.90;73.10;;;;;;5001440;28;20196;-69
2023/08/07 09:47:27;;;;;;;4.47;1.20;;;20.90;73.20;;;;;;4983767;28;20267;-70
2023/08/07 09:49:55;;;;;;;2.80;1.35;;;20.90;73.20;;;;;;5000106;28;20336;-71
2023/08/07 09:52:21;;;;;;;2.50;1.20;;;20.90;73.20;;;;;;4999755;28;20222;-69
2023/08/07 09:54:47;;;;;;;7.50;1.30;;;20.90;73.10;;;;;;4992030;28;20692;-70
2023/08/07 09:57:14;;;;;;;4.35;1.35;;;21.00;73.80;;;;;;5000778;28;20284;-70
2023/08/07 09:59:41;;;;;;;3.50;1.55;;;21.00;74.00;;;;;;4993312;28;20291;-70
2023/08/07 10:02:08;;;;;;;2.60;1.13;;;21.00;74.80;;;;;;5007075;28;20683;-69
2023/08/07 10:04:35;;;;;;;2.80;1.55;;;20.90;73.90;;;;;;4975206;28;20192;-70
2023/08/07 10:07:01;;;;;;;1.70;1.33;;;21.00;74.40;;;;;;4986106;28;20189;-69
2023/08/07 10:09:28;;;;;;;2.47;1.50;;;20.90;73.90;;;;;;4976996;28;20196;-70
2023/08/07 10:11:55;;;;;;;4.60;1.20;;;21.00;74.20;;;;;;4980679;28;20268;-71
2023/08/07 10:14:22;;;;;;;2.83;1.15;;;21.00;74.00;;;;;;4957373;28;20251;-70
2023/08/07 10:16:51;;;;;;;2.60;1.20;;;21.00;74.00;;;;;;4979279;28;20200;-69
2023/08/07 10:19:17;;;;;;;4.80;1.30;;;21.00;74.00;;;;;;4994646;28;20255;-70
2023/08/07 10:21:44;;;;;;;2.13;1.00;;;21.00;73.90;;;;;;5002236;28;20194;-69
2023/08/07 10:24:11;;;;;;;2.33;1.30;;;21.00;74.00;;;;;;5003084;28;20199;-70
2023/08/07 10:26:43;;;;;;;2.15;1.10;;;21.00;74.00;;;;;;4982656;28;20203;-69
2023/08/07 10:29:15;;;;;;;1.25;1.15;;;21.10;74.00;;;;;;5006096;28;20222;-67
2023/08/07 10:31:44;;;;;;;9.07;1.20;;;21.00;74.00;;;;;;4967078;28;20189;-71
2023/08/07 10:34:10;;;;;;;1.98;1.30;;;21.00;74.00;;;;;;4999140;28;20192;-70
2023/08/07 10:36:38;;;;;;;1.73;1.17;;;21.00;74.00;;;;;;4991095;28;20192;-69
2023/08/07 10:39:12;;;;;;;2.05;1.40;;;21.00;74.00;;;;;;4986188;28;20651;-70
2023/08/07 10:41:53;;;;;;;1.70;1.20;;;21.00;74.00;;;;;;4982848;28;20188;-70
2023/08/07 10:44:48;;;;;;;5.22;1.30;;;21.10;73.40;;;;;;4974995;28;20189;-70
2023/08/07 10:47:14;;;;;;;3.20;1.30;;;21.00;73.30;;;;;;4992017;28;20173;-71
2023/08/07 10:49:41;;;;;;;2.30;1.50;;;21.10;73.10;;;;;;4977879;28;20255;-70
2023/08/07 10:52:14;;;;;;;3.40;1.20;;;21.00;72.80;;;;;;4985973;28;20188;-71
2023/08/07 10:54:50;;;;;;;2.83;1.35;;;21.10;72.60;;;;;;4982938;28;20734;-70
2023/08/07 10:57:18;;;;;;;2.47;1.33;;;21.10;72.30;;;;;;4982742;28;20332;-69
2023/08/07 11:00:05;;;;;;;2.50;1.13;;;21.10;72.70;;;;;;5002553;28;20298;-69
2023/08/07 11:02:33;;;;;;;2.08;1.30;;;21.10;72.80;;;;;;5003409;28;20211;-69
2023/08/07 11:04:59;;;;;;;2.97;1.02;;;21.10;72.70;;;;;;5002445;28;20267;-70
2023/08/07 11:07:29;;;;;;;1.60;1.48;;;21.10;72.20;;;;;;4985672;28;20831;-69
2023/08/07 11:09:57;;;;;;;1.80;1.10;;;21.10;72.60;;;;;;4978233;28;20180;-70
2023/08/07 11:12:28;;;;;;;1.63;1.10;;;21.10;72.60;;;;;;4980386;28;20686;-71
2023/08/07 11:14:58;;;;;;;1.77;1.15;;;21.10;72.60;;;;;;5007935;28;20302;-70
2023/08/07 11:17:29;;;;;;;2.05;1.25;;;21.10;72.40;;;;;;4997801;28;20211;-71
2023/08/07 11:19:56;;;;;;;1.33;1.10;;;21.10;72.60;;;;;;4997794;28;20223;-70
2023/08/07 11:22:22;;;;;;;3.97;1.30;;;21.10;72.60;;;;;;4973015;28;20211;-71
2023/08/07 11:24:51;;;;;;;1.63;1.05;;;21.10;72.70;;;;;;4998901;28;20184;-70
2023/08/07 11:27:17;;;;;;;3.65;1.20;;;21.10;73.00;;;;;;4989329;28;20188;-70
2023/08/07 11:29:48;;;;;;;1.35;1.10;;;21.10;73.00;;;;;;4970298;28;20742;-71
2023/08/07 11:32:14;;;;;;;3.15;1.20;;;21.10;72.90;;;;;;4977673;28;20192;-70
2023/08/07 11:34:40;;;;;;;1.25;0.88;;;21.10;72.40;;;;;;4962395;28;20181;-70
2023/08/07 11:37:06;;;;;;;1.52;0.98;;;21.10;72.30;;;;;;4984083;28;20279;-70
2023/08/07 11:39:31;;;;;;;2.60;1.30;;;21.10;72.00;;;;;;4994105;28;20312;-70
2023/08/07 11:41:57;;;;;;;0.93;0.90;;;21.10;72.50;;;;;;5007572;28;20199;-70
2023/08/07 11:44:23;;;;;;;1.05;0.95;;;21.10;72.10;;;;;;5004857;28;20222;-70
2023/08/07 11:46:51;;;;;;;1.20;1.10;;;21.10;72.00;;;;;;4985823;28;20217;-70
2023/08/07 11:49:17;;;;;;;3.00;1.27;;;21.10;71.80;;;;;;4978105;28;20380;-71
2023/08/07 11:51:43;;;;;;;4.15;1.48;;;21.10;70.20;;;;;;4969731;28;20207;-69
2023/08/07 11:54:16;;;;;;;1.30;1.20;;;20.90;70.30;;;;;;4985852;28;20197;-69
2023/08/07 11:56:44;;;;;;;1.73;1.05;;;21.00;72.00;;;;;;4989016;28;20191;-73
2023/08/07 11:59:10;;;;;;;0.95;0.90;;;21.00;71.80;;;;;;4966100;28;20220;-68
2023/08/07 12:01:39;;;;;;;2.03;1.02;;;21.00;71.70;;;;;;4988001;28;20373;-70
2023/08/07 12:04:05;;;;;;;1.35;1.25;;;21.00;71.60;;;;;;5014612;28;20207;-70
2023/08/07 12:06:31;;;;;;;1.38;1.27;;;21.00;72.00;;;;;;4971259;28;20212;-70
2023/08/07 12:08:57;;;;;;;5.88;1.42;;;21.00;71.80;;;;;;4987491;28;20244;-69
2023/08/07 12:11:23;;;;;;;1.30;1.10;;;21.10;72.00;;;;;;4985928;28;20195;-70
2023/08/07 12:13:50;;;;;;;1.85;0.85;;;21.00;72.70;;;;;;4980789;28;20184;-70
2023/08/07 12:16:17;;;;;;;3.10;1.15;;;21.00;71.60;;;;;;4989713;28;20227;-70
2023/08/07 12:18:52;;;;;;;2.80;1.10;;;21.10;71.80;;;;;;5005789;28;20207;-70
2023/08/07 12:21:23;;;;;;;4.30;1.30;;;21.10;71.50;;;;;;4988838;28;20180;-67
2023/08/07 12:23:51;;;;;;;3.95;1.13;;;21.10;71.40;;;;;;4996013;28;20632;-69
2023/08/07 12:26:18;;;;;;;3.38;1.20;;;21.10;71.10;;;;;;4999067;28;20197;-70
2023/08/07 12:28:44;;;;;;;1.27;1.17;;;21.10;71.10;;;;;;5002668;28;20213;-70
2023/08/07 12:31:09;;;;;;;1.45;1.20;;;21.10;71.40;;;;;;4969096;28;20185;-70
2023/08/07 12:33:35;;;;;;;2.67;1.05;;;21.10;71.60;;;;;;4993557;28;20196;-72
2023/08/07 12:36:02;;;;;;;2.20;1.17;;;21.00;71.30;;;;;;4977247;28;20220;-70
2023/08/07 12:38:28;;;;;;;2.97;1.30;;;21.00;71.50;;;;;;4992229;28;20278;-69
2023/08/07 12:40:55;;;;;;;2.72;1.30;;;21.00;71.70;;;;;;4981223;28;20192;-70
2023/08/07 12:43:21;;;;;;;3.63;1.63;;;20.90;71.60;;;;;;4969303;28;20185;-71
2023/08/07 12:45:47;;;;;;;7.50;1.30;;;20.90;71.90;;;;;;5002487;28;20207;-70
2023/08/07 12:48:13;;;;;;;4.55;1.60;;;20.70;69.00;;;;;;5000805;28;20291;-68